sensor_id;sensor_type;location;lat;lon;timestamp;P1;durP1;ratioP1;P2;durP2;ratioP2
23362;SDS011;11853;48.080;11.960;2023-12-14T00:01:51;1.08;;;0.80;;
23362;SDS011;11853;48.080;11.960;2023-12-14T00:04:16;1.15;;;0.70;;
23362;SDS011;11853;48.080;11.960;2023-12-14T00:06:42;0.93;;;0.70;;
23362;SDS011;11853;48.080;11.960;2023-12-14T00:09:08;0.73;;;0.60;;
23362;SDS011;11853;48.080;11.960;2023-12-14T00:11:40;0.57;;;0.57;;
23362;SDS011;11853;48.080;11.960;2023-12-14T00:14:06;0.60;;;0.60;;
23362;SDS011;11853;48.080;11.960;2023-12-14T00:16:32;0.70;;;0.70;;
23362;SDS011;11853;48.080;11.960;2023-12-14T00:18:58;0.60;;;0.60;;
23362;SDS011;11853;48.080;11.960;2023-12-14T00:21:23;0.60;;;0.60;;
23362;SDS011;11853;48.080;11.960;2023-12-14T00:23:49;0.60;;;0.60;;
23362;SDS011;11853;48.080;11.960;2023-12-14T00:26:15;0.57;;;0.57;;
23362;SDS011;11853;48.080;11.960;2023-12-14T00:28:42;2.05;;;0.82;;
23362;SDS011;11853;48.080;11.960;2023-12-14T00:31:08;0.60;;;0.60;;
23362;SDS011;11853;48.080;11.960;2023-12-14T00:33:34;0.90;;;0.90;;
23362;SDS011;11853;48.080;11.960;2023-12-14T00:35:59;0.80;;;0.65;;
23362;SDS011;11853;48.080;11.960;2023-12-14T00:38:25;0.73;;;0.60;;
23362;SDS011;11853;48.080;11.960;2023-12-14T00:40:51;0.60;;;0.60;;
23362;SDS011;11853;48.080;11.960;2023-12-14T00:43:17;0.63;;;0.60;;
23362;SDS011;11853;48.080;11.960;2023-12-14T00:45:45;1.73;;;0.63;;
23362;SDS011;11853;48.080;11.960;2023-12-14T00:48:11;0.60;;;0.60;;
23362;SDS011;11853;48.080;11.960;2023-12-14T00:50:37;0.63;;;0.60;;
23362;SDS011;11853;48.080;11.960;2023-12-14T00:53:02;0.57;;;0.57;;
23362;SDS011;11853;48.080;11.960;2023-12-14T00:55:28;0.82;;;0.82;;
23362;SDS011;11853;48.080;11.960;2023-12-14T00:57:54;1.27;;;0.55;;
23362;SDS011;11853;48.080;11.960;2023-12-14T01:00:19;0.60;;;0.60;;
23362;SDS011;11853;48.080;11.960;2023-12-14T01:02:45;1.05;;;0.60;;
23362;SDS011;11853;48.080;11.960;2023-12-14T01:05:11;1.27;;;0.70;;
23362;SDS011;11853;48.080;11.960;2023-12-14T01:07:36;0.68;;;0.60;;
23362;SDS011;11853;48.080;11.960;2023-12-14T01:10:02;1.17;;;0.60;;
23362;SDS011;11853;48.080;11.960;2023-12-14T01:12:28;0.50;;;0.50;;
23362;SDS011;11853;48.080;11.960;2023-12-14T01:14:54;0.60;;;0.60;;
23362;SDS011;11853;48.080;11.960;2023-12-14T01:17:20;0.93;;;0.63;;
23362;SDS011;11853;48.080;11.960;2023-12-14T01:19:46;0.70;;;0.70;;
23362;SDS011;11853;48.080;11.960;2023-12-14T01:22:12;1.75;;;0.70;;
23362;SDS011;11853;48.080;11.960;2023-12-14T01:24:37;0.70;;;0.70;;
23362;SDS011;11853;48.080;11.960;2023-12-14T01:27:03;0.70;;;0.50;;
23362;SDS011;11853;48.080;11.960;2023-12-14T01:29:29;1.00;;;0.70;;
23362;SDS011;11853;48.080;11.960;2023-12-14T01:31:54;0.70;;;0.50;;
23362;SDS011;11853;48.080;11.960;2023-12-14T01:34:20;0.65;;;0.65;;
23362;SDS011;11853;48.080;11.960;2023-12-14T01:36:46;0.65;;;0.65;;
23362;SDS011;11853;48.080;11.960;2023-12-14T01:39:12;0.70;;;0.70;;
23362;SDS011;11853;48.080;11.960;2023-12-14T01:41:37;1.08;;;0.75;;
23362;SDS011;11853;48.080;11.960;2023-12-14T01:44:03;0.70;;;0.70;;
23362;SDS011;11853;48.080;11.960;2023-12-14T01:46:29;1.33;;;0.80;;
23362;SDS011;11853;48.080;11.960;2023-12-14T01:48:54;0.85;;;0.70;;
23362;SDS011;11853;48.080;11.960;2023-12-14T01:51:20;0.82;;;0.60;;
23362;SDS011;11853;48.080;11.960;2023-12-14T01:53:46;1.38;;;0.80;;
23362;SDS011;11853;48.080;11.960;2023-12-14T01:56:12;1.42;;;0.88;;
23362;SDS011;11853;48.080;11.960;2023-12-14T01:58:37;0.95;;;0.70;;
23362;SDS011;11853;48.080;11.960;2023-12-14T02:01:14;1.05;;;0.93;;
23362;SDS011;11853;48.080;11.960;2023-12-14T02:03:49;1.15;;;1.05;;
23362;SDS011;11853;48.080;11.960;2023-12-14T02:06:16;2.28;;;1.00;;
23362;SDS011;11853;48.080;11.960;2023-12-14T02:08:42;1.02;;;0.98;;
23362;SDS011;11853;48.080;11.960;2023-12-14T02:11:07;0.80;;;0.80;;
23362;SDS011;11853;48.080;11.960;2023-12-14T02:13:33;1.15;;;1.00;;
23362;SDS011;11853;48.080;11.960;2023-12-14T02:15:59;0.90;;;0.90;;
23362;SDS011;11853;48.080;11.960;2023-12-14T02:18:25;0.88;;;0.88;;
23362;SDS011;11853;48.080;11.960;2023-12-14T02:20:51;0.98;;;0.98;;
23362;SDS011;11853;48.080;11.960;2023-12-14T02:23:17;0.82;;;0.82;;
23362;SDS011;11853;48.080;11.960;2023-12-14T02:25:43;1.20;;;1.00;;
23362;SDS011;11853;48.080;11.960;2023-12-14T02:28:08;0.70;;;0.70;;
23362;SDS011;11853;48.080;11.960;2023-12-14T02:30:34;0.70;;;0.70;;
23362;SDS011;11853;48.080;11.960;2023-12-14T02:33:00;0.70;;;0.70;;
23362;SDS011;11853;48.080;11.960;2023-12-14T02:35:27;1.10;;;0.80;;
23362;SDS011;11853;48.080;11.960;2023-12-14T02:37:53;0.73;;;0.73;;
23362;SDS011;11853;48.080;11.960;2023-12-14T02:40:18;0.70;;;0.70;;
23362;SDS011;11853;48.080;11.960;2023-12-14T02:42:44;0.47;;;0.47;;
23362;SDS011;11853;48.080;11.960;2023-12-14T02:45:10;0.80;;;0.80;;
23362;SDS011;11853;48.080;11.960;2023-12-14T02:47:36;0.60;;;0.60;;
23362;SDS011;11853;48.080;11.960;2023-12-14T02:50:01;0.73;;;0.73;;
23362;SDS011;11853;48.080;11.960;2023-12-14T02:52:28;0.55;;;0.55;;
23362;SDS011;11853;48.080;11.960;2023-12-14T02:54:53;0.60;;;0.60;;
23362;SDS011;11853;48.080;11.960;2023-12-14T02:57:19;0.50;;;0.45;;
23362;SDS011;11853;48.080;11.960;2023-12-14T02:59:45;0.57;;;0.57;;
23362;SDS011;11853;48.080;11.960;2023-12-14T03:02:10;0.90;;;0.88;;
23362;SDS011;11853;48.080;11.960;2023-12-14T03:04:39;0.47;;;0.45;;
23362;SDS011;11853;48.080;11.960;2023-12-14T03:07:06;0.47;;;0.47;;
23362;SDS011;11853;48.080;11.960;2023-12-14T03:09:31;1.65;;;0.50;;
23362;SDS011;11853;48.080;11.960;2023-12-14T03:11:58;0.60;;;0.60;;
23362;SDS011;11853;48.080;11.960;2023-12-14T03:14:24;0.50;;;0.50;;
23362;SDS011;11853;48.080;11.960;2023-12-14T03:16:50;0.50;;;0.50;;
23362;SDS011;11853;48.080;11.960;2023-12-14T03:19:16;0.40;;;0.40;;
23362;SDS011;11853;48.080;11.960;2023-12-14T03:21:42;0.50;;;0.50;;
23362;SDS011;11853;48.080;11.960;2023-12-14T03:24:08;0.70;;;0.60;;
23362;SDS011;11853;48.080;11.960;2023-12-14T03:26:37;0.60;;;0.60;;
23362;SDS011;11853;48.080;11.960;2023-12-14T03:29:02;0.50;;;0.50;;
23362;SDS011;11853;48.080;11.960;2023-12-14T03:31:28;0.60;;;0.60;;
23362;SDS011;11853;48.080;11.960;2023-12-14T03:33:54;0.50;;;0.50;;
23362;SDS011;11853;48.080;11.960;2023-12-14T03:36:19;0.50;;;0.50;;
23362;SDS011;11853;48.080;11.960;2023-12-14T03:38:47;0.60;;;0.60;;
23362;SDS011;11853;48.080;11.960;2023-12-14T03:41:13;0.52;;;0.52;;
23362;SDS011;11853;48.080;11.960;2023-12-14T03:43:39;0.52;;;0.52;;
23362;SDS011;11853;48.080;11.960;2023-12-14T03:46:04;0.50;;;0.50;;
23362;SDS011;11853;48.080;11.960;2023-12-14T03:48:31;0.50;;;0.50;;
23362;SDS011;11853;48.080;11.960;2023-12-14T03:50:57;0.50;;;0.50;;
23362;SDS011;11853;48.080;11.960;2023-12-14T03:53:23;0.57;;;0.57;;
23362;SDS011;11853;48.080;11.960;2023-12-14T03:55:48;0.50;;;0.50;;
23362;SDS011;11853;48.080;11.960;2023-12-14T03:58:14;0.70;;;0.70;;
23362;SDS011;11853;48.080;11.960;2023-12-14T04:00:40;0.70;;;0.70;;
23362;SDS011;11853;48.080;11.960;2023-12-14T04:03:05;1.02;;;0.88;;
23362;SDS011;11853;48.080;11.960;2023-12-14T04:05:31;0.90;;;0.90;;
23362;SDS011;11853;48.080;11.960;2023-12-14T04:07:57;1.00;;;1.00;;
23362;SDS011;11853;48.080;11.960;2023-12-14T04:10:22;0.93;;;0.93;;
23362;SDS011;11853;48.080;11.960;2023-12-14T04:12:48;1.05;;;1.05;;
23362;SDS011;11853;48.080;11.960;2023-12-14T04:15:14;1.05;;;1.05;;
23362;SDS011;11853;48.080;11.960;2023-12-14T04:17:40;1.40;;;1.40;;
23362;SDS011;11853;48.080;11.960;2023-12-14T04:20:05;1.40;;;1.40;;
23362;SDS011;11853;48.080;11.960;2023-12-14T04:22:32;1.50;;;1.40;;
23362;SDS011;11853;48.080;11.960;2023-12-14T04:24:57;1.75;;;1.50;;
23362;SDS011;11853;48.080;11.960;2023-12-14T04:27:23;1.98;;;1.88;;
23362;SDS011;11853;48.080;11.960;2023-12-14T04:29:53;2.10;;;2.00;;
23362;SDS011;11853;48.080;11.960;2023-12-14T04:32:19;2.50;;;2.40;;
23362;SDS011;11853;48.080;11.960;2023-12-14T04:34:44;2.30;;;2.10;;
23362;SDS011;11853;48.080;11.960;2023-12-14T04:37:10;2.13;;;2.03;;
23362;SDS011;11853;48.080;11.960;2023-12-14T04:39:36;1.90;;;1.80;;
23362;SDS011;11853;48.080;11.960;2023-12-14T04:42:01;2.22;;;2.13;;
23362;SDS011;11853;48.080;11.960;2023-12-14T04:44:45;2.60;;;2.45;;
23362;SDS011;11853;48.080;11.960;2023-12-14T04:47:11;2.88;;;2.60;;
23362;SDS011;11853;48.080;11.960;2023-12-14T04:49:37;2.22;;;2.13;;
23362;SDS011;11853;48.080;11.960;2023-12-14T04:52:03;2.63;;;2.42;;
23362;SDS011;11853;48.080;11.960;2023-12-14T04:54:29;2.58;;;2.38;;
23362;SDS011;11853;48.080;11.960;2023-12-14T04:56:54;2.60;;;2.40;;
23362;SDS011;11853;48.080;11.960;2023-12-14T04:59:20;2.88;;;2.67;;
23362;SDS011;11853;48.080;11.960;2023-12-14T05:01:46;2.60;;;2.45;;
23362;SDS011;11853;48.080;11.960;2023-12-14T05:04:12;2.58;;;2.45;;
23362;SDS011;11853;48.080;11.960;2023-12-14T05:06:38;2.17;;;2.08;;
23362;SDS011;11853;48.080;11.960;2023-12-14T05:09:04;2.10;;;2.00;;
23362;SDS011;11853;48.080;11.960;2023-12-14T05:11:31;2.50;;;2.40;;
23362;SDS011;11853;48.080;11.960;2023-12-14T05:13:57;2.78;;;2.58;;
23362;SDS011;11853;48.080;11.960;2023-12-14T05:16:23;2.40;;;2.30;;
23362;SDS011;11853;48.080;11.960;2023-12-14T05:18:55;2.65;;;2.45;;
23362;SDS011;11853;48.080;11.960;2023-12-14T05:21:22;2.08;;;1.98;;
23362;SDS011;11853;48.080;11.960;2023-12-14T05:23:48;1.95;;;1.85;;
23362;SDS011;11853;48.080;11.960;2023-12-14T05:26:13;2.22;;;2.13;;
23362;SDS011;11853;48.080;11.960;2023-12-14T05:28:39;2.28;;;2.15;;
23362;SDS011;11853;48.080;11.960;2023-12-14T05:31:05;2.30;;;2.15;;
23362;SDS011;11853;48.080;11.960;2023-12-14T05:33:31;2.05;;;1.95;;
23362;SDS011;11853;48.080;11.960;2023-12-14T05:35:59;2.17;;;2.08;;
23362;SDS011;11853;48.080;11.960;2023-12-14T05:38:24;2.22;;;2.13;;
23362;SDS011;11853;48.080;11.960;2023-12-14T05:40:50;2.10;;;2.00;;
23362;SDS011;11853;48.080;11.960;2023-12-14T05:43:16;2.15;;;2.05;;
23362;SDS011;11853;48.080;11.960;2023-12-14T05:45:41;1.90;;;1.80;;
23362;SDS011;11853;48.080;11.960;2023-12-14T05:48:07;1.70;;;1.60;;
23362;SDS011;11853;48.080;11.960;2023-12-14T05:50:33;2.10;;;2.00;;
23362;SDS011;11853;48.080;11.960;2023-12-14T05:52:59;2.60;;;2.00;;
23362;SDS011;11853;48.080;11.960;2023-12-14T05:55:24;2.22;;;2.03;;
23362;SDS011;11853;48.080;11.960;2023-12-14T05:57:50;1.80;;;1.70;;
23362;SDS011;11853;48.080;11.960;2023-12-14T06:00:17;2.22;;;2.13;;
23362;SDS011;11853;48.080;11.960;2023-12-14T06:02:43;2.10;;;2.00;;
23362;SDS011;11853;48.080;11.960;2023-12-14T06:05:09;2.10;;;1.88;;
23362;SDS011;11853;48.080;11.960;2023-12-14T06:07:36;2.20;;;2.10;;
23362;SDS011;11853;48.080;11.960;2023-12-14T06:10:02;3.08;;;2.40;;
23362;SDS011;11853;48.080;11.960;2023-12-14T06:12:28;2.53;;;2.33;;
23362;SDS011;11853;48.080;11.960;2023-12-14T06:14:54;2.65;;;2.28;;
23362;SDS011;11853;48.080;11.960;2023-12-14T06:17:20;2.10;;;2.00;;
23362;SDS011;11853;48.080;11.960;2023-12-14T06:19:45;2.20;;;2.10;;
23362;SDS011;11853;48.080;11.960;2023-12-14T06:22:12;1.95;;;1.85;;
23362;SDS011;11853;48.080;11.960;2023-12-14T06:24:38;2.50;;;2.30;;
23362;SDS011;11853;48.080;11.960;2023-12-14T06:27:03;3.17;;;2.28;;
23362;SDS011;11853;48.080;11.960;2023-12-14T06:29:29;2.60;;;2.47;;
23362;SDS011;11853;48.080;11.960;2023-12-14T06:31:55;2.40;;;2.20;;
23362;SDS011;11853;48.080;11.960;2023-12-14T06:34:21;2.50;;;2.30;;
23362;SDS011;11853;48.080;11.960;2023-12-14T06:36:46;2.78;;;2.55;;
23362;SDS011;11853;48.080;11.960;2023-12-14T06:39:12;2.30;;;2.20;;
23362;SDS011;11853;48.080;11.960;2023-12-14T06:41:38;2.30;;;2.20;;
23362;SDS011;11853;48.080;11.960;2023-12-14T06:44:04;2.70;;;2.50;;
23362;SDS011;11853;48.080;11.960;2023-12-14T06:46:30;2.92;;;2.55;;
23362;SDS011;11853;48.080;11.960;2023-12-14T06:48:56;2.55;;;2.35;;
23362;SDS011;11853;48.080;11.960;2023-12-14T06:51:22;3.10;;;2.80;;
23362;SDS011;11853;48.080;11.960;2023-12-14T06:53:48;3.45;;;3.15;;
23362;SDS011;11853;48.080;11.960;2023-12-14T06:56:14;3.00;;;2.80;;
23362;SDS011;11853;48.080;11.960;2023-12-14T06:58:41;2.55;;;2.45;;
23362;SDS011;11853;48.080;11.960;2023-12-14T07:01:12;2.72;;;2.55;;
23362;SDS011;11853;48.080;11.960;2023-12-14T07:03:42;2.60;;;2.47;;
23362;SDS011;11853;48.080;11.960;2023-12-14T07:06:13;3.05;;;2.85;;
23362;SDS011;11853;48.080;11.960;2023-12-14T07:08:40;2.97;;;2.78;;
23362;SDS011;11853;48.080;11.960;2023-12-14T07:11:09;2.90;;;2.70;;
23362;SDS011;11853;48.080;11.960;2023-12-14T07:13:36;3.58;;;3.28;;
23362;SDS011;11853;48.080;11.960;2023-12-14T07:16:05;4.03;;;3.55;;
23362;SDS011;11853;48.080;11.960;2023-12-14T07:18:34;6.78;;;4.95;;
23362;SDS011;11853;48.080;11.960;2023-12-14T07:21:00;6.47;;;4.97;;
23362;SDS011;11853;48.080;11.960;2023-12-14T07:23:27;6.30;;;4.50;;
23362;SDS011;11853;48.080;11.960;2023-12-14T07:25:53;6.13;;;5.57;;
23362;SDS011;11853;48.080;11.960;2023-12-14T07:28:19;5.00;;;4.07;;
23362;SDS011;11853;48.080;11.960;2023-12-14T07:30:45;4.07;;;3.78;;
23362;SDS011;11853;48.080;11.960;2023-12-14T07:33:11;4.50;;;4.10;;
23362;SDS011;11853;48.080;11.960;2023-12-14T07:35:37;4.85;;;3.80;;
23362;SDS011;11853;48.080;11.960;2023-12-14T07:38:03;4.85;;;4.45;;
23362;SDS011;11853;48.080;11.960;2023-12-14T07:40:29;6.05;;;5.20;;
23362;SDS011;11853;48.080;11.960;2023-12-14T07:42:54;5.20;;;4.70;;
23362;SDS011;11853;48.080;11.960;2023-12-14T07:45:20;4.60;;;4.20;;
23362;SDS011;11853;48.080;11.960;2023-12-14T07:47:46;4.38;;;4.07;;
23362;SDS011;11853;48.080;11.960;2023-12-14T07:50:12;4.38;;;4.00;;
23362;SDS011;11853;48.080;11.960;2023-12-14T07:52:38;4.00;;;3.60;;
23362;SDS011;11853;48.080;11.960;2023-12-14T07:55:05;3.67;;;3.38;;
23362;SDS011;11853;48.080;11.960;2023-12-14T07:57:31;3.42;;;3.13;;
23362;SDS011;11853;48.080;11.960;2023-12-14T07:59:57;3.42;;;3.05;;
23362;SDS011;11853;48.080;11.960;2023-12-14T08:02:22;3.70;;;3.35;;
23362;SDS011;11853;48.080;11.960;2023-12-14T08:04:48;3.65;;;3.35;;
23362;SDS011;11853;48.080;11.960;2023-12-14T08:07:14;5.63;;;2.97;;
23362;SDS011;11853;48.080;11.960;2023-12-14T08:09:40;4.07;;;2.97;;
23362;SDS011;11853;48.080;11.960;2023-12-14T08:12:06;4.22;;;2.90;;
23362;SDS011;11853;48.080;11.960;2023-12-14T08:14:32;3.78;;;2.88;;
23362;SDS011;11853;48.080;11.960;2023-12-14T08:16:59;2.80;;;2.55;;
23362;SDS011;11853;48.080;11.960;2023-12-14T08:19:26;3.83;;;3.03;;
23362;SDS011;11853;48.080;11.960;2023-12-14T08:21:51;4.22;;;2.95;;
23362;SDS011;11853;48.080;11.960;2023-12-14T08:24:17;3.53;;;3.22;;
23362;SDS011;11853;48.080;11.960;2023-12-14T08:26:43;4.90;;;3.25;;
23362;SDS011;11853;48.080;11.960;2023-12-14T08:29:09;3.33;;;3.03;;
23362;SDS011;11853;48.080;11.960;2023-12-14T08:31:34;3.45;;;3.15;;
23362;SDS011;11853;48.080;11.960;2023-12-14T08:34:00;3.20;;;2.90;;
23362;SDS011;11853;48.080;11.960;2023-12-14T08:36:26;3.13;;;2.83;;
23362;SDS011;11853;48.080;11.960;2023-12-14T08:38:52;3.00;;;2.72;;
23362;SDS011;11853;48.080;11.960;2023-12-14T08:41:17;4.05;;;3.10;;
23362;SDS011;11853;48.080;11.960;2023-12-14T08:43:43;2.72;;;2.53;;
23362;SDS011;11853;48.080;11.960;2023-12-14T08:46:09;2.90;;;2.70;;
23362;SDS011;11853;48.080;11.960;2023-12-14T08:48:38;3.55;;;3.25;;
23362;SDS011;11853;48.080;11.960;2023-12-14T08:51:04;3.63;;;3.33;;
23362;SDS011;11853;48.080;11.960;2023-12-14T08:53:30;3.47;;;2.92;;
23362;SDS011;11853;48.080;11.960;2023-12-14T08:55:55;3.30;;;3.00;;
23362;SDS011;11853;48.080;11.960;2023-12-14T08:58:21;2.95;;;2.70;;
23362;SDS011;11853;48.080;11.960;2023-12-14T09:00:47;5.22;;;3.15;;
23362;SDS011;11853;48.080;11.960;2023-12-14T09:03:18;3.28;;;2.97;;
23362;SDS011;11853;48.080;11.960;2023-12-14T09:05:44;2.78;;;2.58;;
23362;SDS011;11853;48.080;11.960;2023-12-14T09:08:10;3.72;;;3.17;;
23362;SDS011;11853;48.080;11.960;2023-12-14T09:10:37;4.35;;;2.90;;
23362;SDS011;11853;48.080;11.960;2023-12-14T09:13:04;3.03;;;2.72;;
23362;SDS011;11853;48.080;11.960;2023-12-14T09:15:33;3.65;;;2.67;;
23362;SDS011;11853;48.080;11.960;2023-12-14T09:17:59;3.83;;;3.10;;
23362;SDS011;11853;48.080;11.960;2023-12-14T09:20:25;2.85;;;2.55;;
23362;SDS011;11853;48.080;11.960;2023-12-14T09:22:51;3.15;;;2.85;;
23362;SDS011;11853;48.080;11.960;2023-12-14T09:25:18;3.40;;;3.10;;
23362;SDS011;11853;48.080;11.960;2023-12-14T09:27:44;4.00;;;3.60;;
23362;SDS011;11853;48.080;11.960;2023-12-14T09:30:10;4.32;;;3.20;;
23362;SDS011;11853;48.080;11.960;2023-12-14T09:32:36;3.15;;;2.85;;
23362;SDS011;11853;48.080;11.960;2023-12-14T09:35:02;3.20;;;3.00;;
23362;SDS011;11853;48.080;11.960;2023-12-14T09:37:28;4.53;;;3.10;;
23362;SDS011;11853;48.080;11.960;2023-12-14T09:39:53;4.47;;;3.58;;
23362;SDS011;11853;48.080;11.960;2023-12-14T09:42:20;4.05;;;3.25;;
23362;SDS011;11853;48.080;11.960;2023-12-14T09:44:50;5.18;;;4.05;;
23362;SDS011;11853;48.080;11.960;2023-12-14T09:47:17;5.45;;;3.33;;
23362;SDS011;11853;48.080;11.960;2023-12-14T09:49:43;4.18;;;3.60;;
23362;SDS011;11853;48.080;11.960;2023-12-14T09:52:11;3.38;;;3.08;;
23362;SDS011;11853;48.080;11.960;2023-12-14T09:54:37;3.10;;;2.88;;
23362;SDS011;11853;48.080;11.960;2023-12-14T09:57:03;3.33;;;3.13;;
23362;SDS011;11853;48.080;11.960;2023-12-14T09:59:29;3.40;;;3.10;;
23362;SDS011;11853;48.080;11.960;2023-12-14T10:02:08;2.97;;;2.63;;
23362;SDS011;11853;48.080;11.960;2023-12-14T10:07:02;2.92;;;2.65;;
23362;SDS011;11853;48.080;11.960;2023-12-14T10:09:32;2.85;;;2.65;;
23362;SDS011;11853;48.080;11.960;2023-12-14T10:12:03;2.95;;;2.75;;
23362;SDS011;11853;48.080;11.960;2023-12-14T10:14:30;3.40;;;3.10;;
23362;SDS011;11853;48.080;11.960;2023-12-14T10:16:57;3.00;;;2.70;;
23362;SDS011;11853;48.080;11.960;2023-12-14T10:19:23;4.47;;;2.72;;
23362;SDS011;11853;48.080;11.960;2023-12-14T10:21:49;2.92;;;2.72;;
23362;SDS011;11853;48.080;11.960;2023-12-14T10:24:16;2.97;;;2.70;;
23362;SDS011;11853;48.080;11.960;2023-12-14T10:26:45;2.97;;;2.58;;
23362;SDS011;11853;48.080;11.960;2023-12-14T10:29:12;3.80;;;2.63;;
23362;SDS011;11853;48.080;11.960;2023-12-14T10:31:38;2.92;;;2.65;;
23362;SDS011;11853;48.080;11.960;2023-12-14T10:34:04;3.58;;;2.83;;
23362;SDS011;11853;48.080;11.960;2023-12-14T10:36:30;2.60;;;2.40;;
23362;SDS011;11853;48.080;11.960;2023-12-14T10:38:57;3.13;;;2.80;;
23362;SDS011;11853;48.080;11.960;2023-12-14T10:41:25;2.80;;;2.50;;
23362;SDS011;11853;48.080;11.960;2023-12-14T10:43:55;2.20;;;2.10;;
23362;SDS011;11853;48.080;11.960;2023-12-14T10:46:21;3.08;;;2.83;;
23362;SDS011;11853;48.080;11.960;2023-12-14T10:48:49;2.95;;;2.70;;
23362;SDS011;11853;48.080;11.960;2023-12-14T10:51:19;2.67;;;2.47;;
23362;SDS011;11853;48.080;11.960;2023-12-14T10:53:47;2.30;;;2.17;;
23362;SDS011;11853;48.080;11.960;2023-12-14T10:56:14;2.15;;;2.05;;
23362;SDS011;11853;48.080;11.960;2023-12-14T11:01:25;2.28;;;2.10;;
23362;SDS011;11853;48.080;11.960;2023-12-14T11:03:55;2.47;;;2.28;;
23362;SDS011;11853;48.080;11.960;2023-12-14T11:06:28;3.03;;;2.75;;
23362;SDS011;11853;48.080;11.960;2023-12-14T11:09:00;5.03;;;3.60;;
23362;SDS011;11853;48.080;11.960;2023-12-14T11:12:19;4.78;;;3.80;;
23362;SDS011;11853;48.080;11.960;2023-12-14T11:14:26;8.02;;;5.45;;
23362;SDS011;11853;48.080;11.960;2023-12-14T11:16:55;4.78;;;3.88;;
23362;SDS011;11853;48.080;11.960;2023-12-14T11:19:27;3.15;;;2.63;;
23362;SDS011;11853;48.080;11.960;2023-12-14T11:24:23;2.58;;;1.80;;
23362;SDS011;11853;48.080;11.960;2023-12-14T11:26:49;1.98;;;1.48;;
23362;SDS011;11853;48.080;11.960;2023-12-14T11:29:16;1.17;;;1.08;;
23362;SDS011;11853;48.080;11.960;2023-12-14T11:31:44;0.95;;;0.80;;
23362;SDS011;11853;48.080;11.960;2023-12-14T11:34:10;1.00;;;0.90;;
23362;SDS011;11853;48.080;11.960;2023-12-14T11:36:36;0.95;;;0.95;;
23362;SDS011;11853;48.080;11.960;2023-12-14T11:39:04;1.10;;;1.00;;
23362;SDS011;11853;48.080;11.960;2023-12-14T11:41:31;1.15;;;1.05;;
23362;SDS011;11853;48.080;11.960;2023-12-14T11:43:59;1.42;;;1.30;;
23362;SDS011;11853;48.080;11.960;2023-12-14T11:46:24;1.20;;;1.10;;
23362;SDS011;11853;48.080;11.960;2023-12-14T11:48:50;2.05;;;0.90;;
23362;SDS011;11853;48.080;11.960;2023-12-14T11:51:16;0.80;;;0.80;;
23362;SDS011;11853;48.080;11.960;2023-12-14T11:53:49;0.77;;;0.77;;
23362;SDS011;11853;48.080;11.960;2023-12-14T11:56:19;0.90;;;0.90;;
23362;SDS011;11853;48.080;11.960;2023-12-14T11:58:45;1.17;;;1.08;;
23362;SDS011;11853;48.080;11.960;2023-12-14T12:01:16;0.60;;;0.60;;
23362;SDS011;11853;48.080;11.960;2023-12-14T12:03:44;1.23;;;0.90;;
23362;SDS011;11853;48.080;11.960;2023-12-14T12:06:23;1.38;;;0.93;;
23362;SDS011;11853;48.080;11.960;2023-12-14T12:08:50;1.05;;;0.90;;
23362;SDS011;11853;48.080;11.960;2023-12-14T12:11:17;2.50;;;1.00;;
23362;SDS011;11853;48.080;11.960;2023-12-14T12:13:44;2.53;;;1.35;;
23362;SDS011;11853;48.080;11.960;2023-12-14T12:16:15;1.85;;;1.10;;
23362;SDS011;11853;48.080;11.960;2023-12-14T12:18:40;1.50;;;1.40;;
23362;SDS011;11853;48.080;11.960;2023-12-14T12:21:06;2.10;;;1.40;;
23362;SDS011;11853;48.080;11.960;2023-12-14T12:23:34;1.70;;;1.60;;
23362;SDS011;11853;48.080;11.960;2023-12-14T12:26:00;1.60;;;1.50;;
23362;SDS011;11853;48.080;11.960;2023-12-14T12:28:26;1.85;;;1.75;;
23362;SDS011;11853;48.080;11.960;2023-12-14T12:30:52;2.63;;;1.80;;
23362;SDS011;11853;48.080;11.960;2023-12-14T12:33:17;2.00;;;1.75;;
23362;SDS011;11853;48.080;11.960;2023-12-14T12:35:43;2.88;;;2.55;;
23362;SDS011;11853;48.080;11.960;2023-12-14T12:38:09;2.38;;;2.17;;
23362;SDS011;11853;48.080;11.960;2023-12-14T12:40:34;2.50;;;2.08;;
23362;SDS011;11853;48.080;11.960;2023-12-14T12:43:00;2.83;;;2.10;;
23362;SDS011;11853;48.080;11.960;2023-12-14T12:45:27;2.08;;;1.90;;
23362;SDS011;11853;48.080;11.960;2023-12-14T12:47:53;1.90;;;1.80;;
23362;SDS011;11853;48.080;11.960;2023-12-14T12:50:19;2.10;;;1.90;;
23362;SDS011;11853;48.080;11.960;2023-12-14T12:52:45;2.90;;;1.88;;
23362;SDS011;11853;48.080;11.960;2023-12-14T12:55:13;2.20;;;2.10;;
23362;SDS011;11853;48.080;11.960;2023-12-14T12:57:40;2.30;;;2.10;;
23362;SDS011;11853;48.080;11.960;2023-12-14T13:00:07;2.20;;;2.00;;
23362;SDS011;11853;48.080;11.960;2023-12-14T13:02:40;2.20;;;2.00;;
23362;SDS011;11853;48.080;11.960;2023-12-14T13:05:07;3.63;;;2.10;;
23362;SDS011;11853;48.080;11.960;2023-12-14T13:07:34;2.50;;;2.28;;
23362;SDS011;11853;48.080;11.960;2023-12-14T13:10:02;3.67;;;3.38;;
23362;SDS011;11853;48.080;11.960;2023-12-14T13:12:30;3.45;;;2.92;;
23362;SDS011;11853;48.080;11.960;2023-12-14T13:14:56;3.42;;;2.00;;
23362;SDS011;11853;48.080;11.960;2023-12-14T13:17:21;2.45;;;2.25;;
23362;SDS011;11853;48.080;11.960;2023-12-14T13:19:48;3.00;;;2.80;;
23362;SDS011;11853;48.080;11.960;2023-12-14T13:22:14;3.10;;;2.80;;
23362;SDS011;11853;48.080;11.960;2023-12-14T13:24:39;5.00;;;3.40;;
23362;SDS011;11853;48.080;11.960;2023-12-14T13:27:05;3.72;;;3.38;;
23362;SDS011;11853;48.080;11.960;2023-12-14T13:29:31;4.60;;;3.67;;
23362;SDS011;11853;48.080;11.960;2023-12-14T13:31:59;4.53;;;4.20;;
23362;SDS011;11853;48.080;11.960;2023-12-14T13:34:26;4.53;;;4.13;;
23362;SDS011;11853;48.080;11.960;2023-12-14T13:36:53;3.50;;;3.20;;
23362;SDS011;11853;48.080;11.960;2023-12-14T13:39:19;4.15;;;3.75;;
23362;SDS011;11853;48.080;11.960;2023-12-14T13:41:45;3.67;;;3.03;;
23362;SDS011;11853;48.080;11.960;2023-12-14T13:44:11;2.85;;;2.58;;
23362;SDS011;11853;48.080;11.960;2023-12-14T13:46:37;3.25;;;2.58;;
23362;SDS011;11853;48.080;11.960;2023-12-14T13:49:02;2.55;;;2.35;;
23362;SDS011;11853;48.080;11.960;2023-12-14T13:51:28;2.35;;;2.03;;
23362;SDS011;11853;48.080;11.960;2023-12-14T13:53:54;2.42;;;2.00;;
23362;SDS011;11853;48.080;11.960;2023-12-14T13:56:20;2.15;;;2.00;;
23362;SDS011;11853;48.080;11.960;2023-12-14T13:58:46;3.45;;;2.35;;
23362;SDS011;11853;48.080;11.960;2023-12-14T14:01:12;3.72;;;2.40;;
23362;SDS011;11853;48.080;11.960;2023-12-14T14:03:40;2.38;;;2.20;;
23362;SDS011;11853;48.080;11.960;2023-12-14T14:06:06;2.42;;;2.20;;
23362;SDS011;11853;48.080;11.960;2023-12-14T14:08:32;3.47;;;2.00;;
23362;SDS011;11853;48.080;11.960;2023-12-14T14:10:58;2.95;;;2.20;;
23362;SDS011;11853;48.080;11.960;2023-12-14T14:13:25;2.92;;;2.20;;
23362;SDS011;11853;48.080;11.960;2023-12-14T14:15:51;2.05;;;1.88;;
23362;SDS011;11853;48.080;11.960;2023-12-14T14:18:17;3.00;;;2.38;;
23362;SDS011;11853;48.080;11.960;2023-12-14T14:20:43;2.70;;;2.50;;
23362;SDS011;11853;48.080;11.960;2023-12-14T14:23:08;2.40;;;2.20;;
23362;SDS011;11853;48.080;11.960;2023-12-14T14:25:34;3.65;;;3.05;;
23362;SDS011;11853;48.080;11.960;2023-12-14T14:28:00;3.40;;;3.03;;
23362;SDS011;11853;48.080;11.960;2023-12-14T14:30:26;4.00;;;2.60;;
23362;SDS011;11853;48.080;11.960;2023-12-14T14:32:51;2.83;;;2.20;;
23362;SDS011;11853;48.080;11.960;2023-12-14T14:35:18;3.60;;;2.13;;
23362;SDS011;11853;48.080;11.960;2023-12-14T14:37:43;2.75;;;2.22;;